sensor_id;sensor_type;location;lat;lon;timestamp;P1;durP1;ratioP1;P2;durP2;ratioP2
18383;SDS011;9318;48.644;9.456;2023-04-10T00:00:28;23.33;;;11.17;;
18383;SDS011;9318;48.644;9.456;2023-04-10T00:02:56;23.63;;;11.17;;
18383;SDS011;9318;48.644;9.456;2023-04-10T00:05:25;24.33;;;11.27;;
18383;SDS011;9318;48.644;9.456;2023-04-10T00:07:51;23.07;;;10.83;;
18383;SDS011;9318;48.644;9.456;2023-04-10T00:10:18;22.40;;;10.80;;
18383;SDS011;9318;48.644;9.456;2023-04-10T00:12:46;22.53;;;10.67;;
18383;SDS011;9318;48.644;9.456;2023-04-10T00:15:13;22.97;;;10.87;;
18383;SDS011;9318;48.644;9.456;2023-04-10T00:17:39;23.13;;;11.13;;
18383;SDS011;9318;48.644;9.456;2023-04-10T00:20:07;26.07;;;11.17;;
18383;SDS011;9318;48.644;9.456;2023-04-10T00:22:35;23.20;;;11.20;;
18383;SDS011;9318;48.644;9.456;2023-04-10T00:25:02;25.27;;;12.27;;
18383;SDS011;9318;48.644;9.456;2023-04-10T00:27:30;24.20;;;11.17;;
18383;SDS011;9318;48.644;9.456;2023-04-10T00:29:57;24.87;;;11.63;;
18383;SDS011;9318;48.644;9.456;2023-04-10T00:32:24;22.50;;;11.63;;
18383;SDS011;9318;48.644;9.456;2023-04-10T00:34:50;25.17;;;11.67;;
18383;SDS011;9318;48.644;9.456;2023-04-10T00:37:17;24.07;;;10.83;;
18383;SDS011;9318;48.644;9.456;2023-04-10T00:39:46;23.40;;;11.10;;
18383;SDS011;9318;48.644;9.456;2023-04-10T00:42:12;24.77;;;11.13;;
18383;SDS011;9318;48.644;9.456;2023-04-10T00:44:39;24.43;;;11.10;;
18383;SDS011;9318;48.644;9.456;2023-04-10T00:47:06;22.50;;;10.73;;
18383;SDS011;9318;48.644;9.456;2023-04-10T00:49:33;22.17;;;10.97;;
18383;SDS011;9318;48.644;9.456;2023-04-10T00:52:00;21.90;;;10.60;;
18383;SDS011;9318;48.644;9.456;2023-04-10T00:54:27;24.07;;;10.17;;
18383;SDS011;9318;48.644;9.456;2023-04-10T00:56:55;21.10;;;10.10;;
18383;SDS011;9318;48.644;9.456;2023-04-10T00:59:23;23.30;;;10.57;;
18383;SDS011;9318;48.644;9.456;2023-04-10T01:01:50;23.33;;;10.90;;
18383;SDS011;9318;48.644;9.456;2023-04-10T01:04:17;22.73;;;10.17;;
18383;SDS011;9318;48.644;9.456;2023-04-10T01:06:48;24.27;;;11.37;;
18383;SDS011;9318;48.644;9.456;2023-04-10T01:09:22;23.87;;;11.03;;
18383;SDS011;9318;48.644;9.456;2023-04-10T01:12:01;23.53;;;11.07;;
18383;SDS011;9318;48.644;9.456;2023-04-10T01:14:35;23.43;;;10.97;;
18383;SDS011;9318;48.644;9.456;2023-04-10T01:17:12;23.20;;;11.03;;
18383;SDS011;9318;48.644;9.456;2023-04-10T01:19:50;23.60;;;11.03;;
18383;SDS011;9318;48.644;9.456;2023-04-10T01:22:31;23.80;;;11.50;;
18383;SDS011;9318;48.644;9.456;2023-04-10T01:25:02;23.40;;;11.23;;
18383;SDS011;9318;48.644;9.456;2023-04-10T01:27:43;25.40;;;11.47;;
18383;SDS011;9318;48.644;9.456;2023-04-10T01:30:19;23.70;;;11.23;;
18383;SDS011;9318;48.644;9.456;2023-04-10T01:32:48;24.00;;;10.60;;
18383;SDS011;9318;48.644;9.456;2023-04-10T01:35:16;23.27;;;10.87;;
18383;SDS011;9318;48.644;9.456;2023-04-10T01:37:44;24.67;;;11.50;;
18383;SDS011;9318;48.644;9.456;2023-04-10T01:40:14;23.57;;;11.10;;
18383;SDS011;9318;48.644;9.456;2023-04-10T01:42:42;23.40;;;10.50;;
18383;SDS011;9318;48.644;9.456;2023-04-10T01:45:22;23.43;;;10.87;;
18383;SDS011;9318;48.644;9.456;2023-04-10T01:47:51;20.17;;;9.80;;
18383;SDS011;9318;48.644;9.456;2023-04-10T01:50:19;24.60;;;11.10;;
18383;SDS011;9318;48.644;9.456;2023-04-10T01:52:47;24.27;;;11.23;;
18383;SDS011;9318;48.644;9.456;2023-04-10T01:55:16;25.73;;;11.47;;
18383;SDS011;9318;48.644;9.456;2023-04-10T01:57:43;24.97;;;11.30;;
18383;SDS011;9318;48.644;9.456;2023-04-10T02:00:13;25.20;;;11.70;;
18383;SDS011;9318;48.644;9.456;2023-04-10T02:02:41;24.97;;;11.13;;
18383;SDS011;9318;48.644;9.456;2023-04-10T02:05:08;24.23;;;11.30;;
18383;SDS011;9318;48.644;9.456;2023-04-10T02:07:37;23.23;;;10.90;;
18383;SDS011;9318;48.644;9.456;2023-04-10T02:10:08;23.90;;;11.23;;
18383;SDS011;9318;48.644;9.456;2023-04-10T02:12:40;24.60;;;11.13;;
18383;SDS011;9318;48.644;9.456;2023-04-10T02:15:11;26.77;;;11.67;;
18383;SDS011;9318;48.644;9.456;2023-04-10T02:17:38;24.80;;;11.43;;
18383;SDS011;9318;48.644;9.456;2023-04-10T02:20:07;25.67;;;11.90;;
18383;SDS011;9318;48.644;9.456;2023-04-10T02:22:35;25.87;;;11.60;;
18383;SDS011;9318;48.644;9.456;2023-04-10T02:25:03;26.17;;;12.17;;
18383;SDS011;9318;48.644;9.456;2023-04-10T02:27:31;24.77;;;11.87;;
18383;SDS011;9318;48.644;9.456;2023-04-10T02:29:59;25.20;;;11.90;;
18383;SDS011;9318;48.644;9.456;2023-04-10T02:32:27;26.27;;;11.33;;
18383;SDS011;9318;48.644;9.456;2023-04-10T02:34:55;23.70;;;11.40;;
18383;SDS011;9318;48.644;9.456;2023-04-10T02:37:22;23.43;;;11.20;;
18383;SDS011;9318;48.644;9.456;2023-04-10T02:39:49;23.77;;;11.27;;
18383;SDS011;9318;48.644;9.456;2023-04-10T02:42:16;24.90;;;11.70;;
18383;SDS011;9318;48.644;9.456;2023-04-10T02:44:43;27.43;;;12.20;;
18383;SDS011;9318;48.644;9.456;2023-04-10T02:47:10;24.57;;;11.10;;
18383;SDS011;9318;48.644;9.456;2023-04-10T02:49:37;24.97;;;11.97;;
18383;SDS011;9318;48.644;9.456;2023-04-10T02:52:05;24.60;;;11.70;;
18383;SDS011;9318;48.644;9.456;2023-04-10T02:54:32;23.77;;;11.00;;
18383;SDS011;9318;48.644;9.456;2023-04-10T02:56:59;25.33;;;11.67;;
18383;SDS011;9318;48.644;9.456;2023-04-10T02:59:26;25.23;;;11.47;;
18383;SDS011;9318;48.644;9.456;2023-04-10T03:01:53;24.33;;;11.47;;
18383;SDS011;9318;48.644;9.456;2023-04-10T03:04:20;24.67;;;11.47;;
18383;SDS011;9318;48.644;9.456;2023-04-10T03:06:46;24.97;;;11.67;;
18383;SDS011;9318;48.644;9.456;2023-04-10T03:09:14;24.47;;;10.80;;
18383;SDS011;9318;48.644;9.456;2023-04-10T03:11:41;25.40;;;11.00;;
18383;SDS011;9318;48.644;9.456;2023-04-10T03:14:08;23.47;;;11.20;;
18383;SDS011;9318;48.644;9.456;2023-04-10T03:16:35;25.57;;;11.63;;
18383;SDS011;9318;48.644;9.456;2023-04-10T03:19:02;24.93;;;11.70;;
18383;SDS011;9318;48.644;9.456;2023-04-10T03:21:28;25.33;;;12.20;;
18383;SDS011;9318;48.644;9.456;2023-04-10T03:23:56;24.33;;;10.77;;
18383;SDS011;9318;48.644;9.456;2023-04-10T03:26:24;23.17;;;10.93;;
18383;SDS011;9318;48.644;9.456;2023-04-10T03:28:51;22.73;;;10.50;;
18383;SDS011;9318;48.644;9.456;2023-04-10T03:31:18;23.67;;;10.50;;
18383;SDS011;9318;48.644;9.456;2023-04-10T03:33:45;23.40;;;10.37;;
18383;SDS011;9318;48.644;9.456;2023-04-10T03:36:12;22.47;;;10.60;;
18383;SDS011;9318;48.644;9.456;2023-04-10T03:38:39;24.47;;;11.17;;
18383;SDS011;9318;48.644;9.456;2023-04-10T03:41:06;22.70;;;10.70;;
18383;SDS011;9318;48.644;9.456;2023-04-10T03:43:34;24.37;;;11.30;;
18383;SDS011;9318;48.644;9.456;2023-04-10T03:46:00;22.60;;;10.33;;
18383;SDS011;9318;48.644;9.456;2023-04-10T03:48:27;26.03;;;11.90;;
18383;SDS011;9318;48.644;9.456;2023-04-10T03:50:54;22.60;;;10.00;;
18383;SDS011;9318;48.644;9.456;2023-04-10T03:53:21;22.37;;;10.67;;
18383;SDS011;9318;48.644;9.456;2023-04-10T03:55:48;26.60;;;11.30;;
18383;SDS011;9318;48.644;9.456;2023-04-10T03:58:16;25.70;;;11.63;;
18383;SDS011;9318;48.644;9.456;2023-04-10T04:00:44;25.30;;;11.47;;
18383;SDS011;9318;48.644;9.456;2023-04-10T04:03:11;23.60;;;11.63;;
18383;SDS011;9318;48.644;9.456;2023-04-10T04:05:38;23.93;;;10.93;;
18383;SDS011;9318;48.644;9.456;2023-04-10T04:08:04;25.77;;;11.47;;
18383;SDS011;9318;48.644;9.456;2023-04-10T04:10:31;22.57;;;10.93;;
18383;SDS011;9318;48.644;9.456;2023-04-10T04:12:58;23.03;;;10.63;;
18383;SDS011;9318;48.644;9.456;2023-04-10T04:15:25;25.70;;;11.40;;
18383;SDS011;9318;48.644;9.456;2023-04-10T04:17:53;22.47;;;10.53;;
18383;SDS011;9318;48.644;9.456;2023-04-10T04:20:20;24.50;;;11.23;;
18383;SDS011;9318;48.644;9.456;2023-04-10T04:22:46;24.27;;;10.87;;
18383;SDS011;9318;48.644;9.456;2023-04-10T04:25:13;22.93;;;10.37;;
18383;SDS011;9318;48.644;9.456;2023-04-10T04:27:40;24.10;;;11.10;;
18383;SDS011;9318;48.644;9.456;2023-04-10T04:30:07;22.70;;;10.57;;
18383;SDS011;9318;48.644;9.456;2023-04-10T04:32:34;22.27;;;9.93;;
18383;SDS011;9318;48.644;9.456;2023-04-10T04:35:02;23.47;;;10.30;;
18383;SDS011;9318;48.644;9.456;2023-04-10T04:37:30;24.67;;;10.90;;
18383;SDS011;9318;48.644;9.456;2023-04-10T04:39:56;26.13;;;11.03;;
18383;SDS011;9318;48.644;9.456;2023-04-10T04:42:23;23.00;;;11.00;;
18383;SDS011;9318;48.644;9.456;2023-04-10T04:44:50;23.57;;;10.33;;
18383;SDS011;9318;48.644;9.456;2023-04-10T04:47:17;23.60;;;10.50;;
18383;SDS011;9318;48.644;9.456;2023-04-10T04:49:43;23.63;;;10.83;;
18383;SDS011;9318;48.644;9.456;2023-04-10T04:52:12;23.50;;;11.20;;
18383;SDS011;9318;48.644;9.456;2023-04-10T04:54:38;25.70;;;11.83;;
18383;SDS011;9318;48.644;9.456;2023-04-10T04:57:05;25.13;;;10.97;;
18383;SDS011;9318;48.644;9.456;2023-04-10T04:59:32;25.67;;;10.83;;
18383;SDS011;9318;48.644;9.456;2023-04-10T05:01:59;23.47;;;10.67;;
18383;SDS011;9318;48.644;9.456;2023-04-10T05:04:26;24.80;;;10.80;;
18383;SDS011;9318;48.644;9.456;2023-04-10T05:06:52;23.00;;;10.77;;
18383;SDS011;9318;48.644;9.456;2023-04-10T05:09:21;21.47;;;10.20;;
18383;SDS011;9318;48.644;9.456;2023-04-10T05:11:47;24.10;;;11.00;;
18383;SDS011;9318;48.644;9.456;2023-04-10T05:14:15;24.93;;;10.40;;
18383;SDS011;9318;48.644;9.456;2023-04-10T05:16:42;20.97;;;9.87;;
18383;SDS011;9318;48.644;9.456;2023-04-10T05:19:08;22.23;;;10.60;;
18383;SDS011;9318;48.644;9.456;2023-04-10T05:21:35;25.00;;;10.33;;
18383;SDS011;9318;48.644;9.456;2023-04-10T05:24:02;22.37;;;10.10;;
18383;SDS011;9318;48.644;9.456;2023-04-10T05:26:30;20.77;;;10.00;;
18383;SDS011;9318;48.644;9.456;2023-04-10T05:28:57;19.97;;;9.83;;
18383;SDS011;9318;48.644;9.456;2023-04-10T05:31:24;23.40;;;10.83;;
18383;SDS011;9318;48.644;9.456;2023-04-10T05:33:51;22.43;;;10.60;;
18383;SDS011;9318;48.644;9.456;2023-04-10T05:36:17;22.03;;;9.83;;
18383;SDS011;9318;48.644;9.456;2023-04-10T05:38:44;22.53;;;10.30;;
18383;SDS011;9318;48.644;9.456;2023-04-10T05:41:11;20.73;;;9.50;;
18383;SDS011;9318;48.644;9.456;2023-04-10T05:43:39;19.73;;;9.37;;
18383;SDS011;9318;48.644;9.456;2023-04-10T05:46:06;22.80;;;10.43;;
18383;SDS011;9318;48.644;9.456;2023-04-10T05:48:32;21.00;;;9.70;;
18383;SDS011;9318;48.644;9.456;2023-04-10T05:50:59;20.83;;;9.40;;
18383;SDS011;9318;48.644;9.456;2023-04-10T05:53:27;20.00;;;9.43;;
18383;SDS011;9318;48.644;9.456;2023-04-10T05:55:55;18.93;;;9.33;;
18383;SDS011;9318;48.644;9.456;2023-04-10T05:58:23;17.73;;;8.97;;
18383;SDS011;9318;48.644;9.456;2023-04-10T06:00:51;19.70;;;9.37;;
18383;SDS011;9318;48.644;9.456;2023-04-10T06:03:18;19.63;;;9.17;;
18383;SDS011;9318;48.644;9.456;2023-04-10T06:05:45;15.97;;;8.67;;
18383;SDS011;9318;48.644;9.456;2023-04-10T06:08:12;21.97;;;8.77;;
18383;SDS011;9318;48.644;9.456;2023-04-10T06:10:39;18.60;;;8.97;;
18383;SDS011;9318;48.644;9.456;2023-04-10T06:13:05;15.23;;;7.80;;
18383;SDS011;9318;48.644;9.456;2023-04-10T06:15:32;17.63;;;9.23;;
18383;SDS011;9318;48.644;9.456;2023-04-10T06:18:00;21.47;;;9.80;;
18383;SDS011;9318;48.644;9.456;2023-04-10T06:20:27;15.93;;;8.20;;
18383;SDS011;9318;48.644;9.456;2023-04-10T06:22:54;18.07;;;8.90;;
18383;SDS011;9318;48.644;9.456;2023-04-10T06:25:20;14.30;;;7.80;;
18383;SDS011;9318;48.644;9.456;2023-04-10T06:27:47;15.13;;;7.70;;
18383;SDS011;9318;48.644;9.456;2023-04-10T06:30:14;15.70;;;8.57;;
18383;SDS011;9318;48.644;9.456;2023-04-10T06:32:41;19.73;;;8.50;;
18383;SDS011;9318;48.644;9.456;2023-04-10T06:35:10;14.17;;;7.57;;
18383;SDS011;9318;48.644;9.456;2023-04-10T06:37:36;15.10;;;7.73;;
18383;SDS011;9318;48.644;9.456;2023-04-10T06:40:04;13.87;;;7.27;;
18383;SDS011;9318;48.644;9.456;2023-04-10T06:42:32;13.53;;;6.83;;
18383;SDS011;9318;48.644;9.456;2023-04-10T06:44:59;12.87;;;6.80;;
18383;SDS011;9318;48.644;9.456;2023-04-10T06:47:26;12.27;;;6.90;;
18383;SDS011;9318;48.644;9.456;2023-04-10T06:49:52;12.33;;;6.63;;
18383;SDS011;9318;48.644;9.456;2023-04-10T06:52:21;14.27;;;7.10;;
18383;SDS011;9318;48.644;9.456;2023-04-10T06:54:47;12.50;;;6.70;;
18383;SDS011;9318;48.644;9.456;2023-04-10T06:57:14;11.67;;;6.20;;
18383;SDS011;9318;48.644;9.456;2023-04-10T06:59:41;10.50;;;6.10;;
18383;SDS011;9318;48.644;9.456;2023-04-10T07:02:08;12.73;;;6.40;;
18383;SDS011;9318;48.644;9.456;2023-04-10T07:04:34;12.17;;;6.47;;
18383;SDS011;9318;48.644;9.456;2023-04-10T07:07:01;11.17;;;6.50;;
18383;SDS011;9318;48.644;9.456;2023-04-10T07:09:30;11.63;;;6.30;;
18383;SDS011;9318;48.644;9.456;2023-04-10T07:11:57;10.43;;;6.07;;
18383;SDS011;9318;48.644;9.456;2023-04-10T07:14:24;10.63;;;6.20;;
18383;SDS011;9318;48.644;9.456;2023-04-10T07:16:51;11.30;;;6.10;;
18383;SDS011;9318;48.644;9.456;2023-04-10T07:19:18;11.37;;;5.97;;
18383;SDS011;9318;48.644;9.456;2023-04-10T07:21:45;11.17;;;6.00;;
18383;SDS011;9318;48.644;9.456;2023-04-10T07:24:14;9.90;;;6.20;;
18383;SDS011;9318;48.644;9.456;2023-04-10T07:26:42;10.57;;;6.20;;
18383;SDS011;9318;48.644;9.456;2023-04-10T07:29:09;9.93;;;6.00;;
18383;SDS011;9318;48.644;9.456;2023-04-10T07:31:36;10.37;;;6.13;;
18383;SDS011;9318;48.644;9.456;2023-04-10T07:34:03;11.83;;;6.20;;
18383;SDS011;9318;48.644;9.456;2023-04-10T07:36:30;9.47;;;5.70;;
18383;SDS011;9318;48.644;9.456;2023-04-10T07:38:57;8.88;;;5.60;;
18383;SDS011;9318;48.644;9.456;2023-04-10T07:41:24;9.57;;;5.68;;
18383;SDS011;9318;48.644;9.456;2023-04-10T07:43:52;10.00;;;6.03;;
18383;SDS011;9318;48.644;9.456;2023-04-10T07:46:18;10.60;;;5.82;;
18383;SDS011;9318;48.644;9.456;2023-04-10T07:48:45;10.57;;;6.05;;
18383;SDS011;9318;48.644;9.456;2023-04-10T07:51:13;10.20;;;5.95;;
18383;SDS011;9318;48.644;9.456;2023-04-10T07:53:40;9.27;;;5.68;;
18383;SDS011;9318;48.644;9.456;2023-04-10T07:56:13;9.95;;;5.70;;
18383;SDS011;9318;48.644;9.456;2023-04-10T07:58:41;8.00;;;5.38;;
18383;SDS011;9318;48.644;9.456;2023-04-10T08:01:09;8.35;;;5.43;;
18383;SDS011;9318;48.644;9.456;2023-04-10T08:03:38;8.90;;;5.63;;
18383;SDS011;9318;48.644;9.456;2023-04-10T08:06:06;8.57;;;5.60;;
18383;SDS011;9318;48.644;9.456;2023-04-10T08:08:34;7.78;;;5.07;;
18383;SDS011;9318;48.644;9.456;2023-04-10T08:11:01;8.07;;;5.28;;
18383;SDS011;9318;48.644;9.456;2023-04-10T08:13:29;9.25;;;5.75;;
18383;SDS011;9318;48.644;9.456;2023-04-10T08:15:56;11.68;;;5.75;;
18383;SDS011;9318;48.644;9.456;2023-04-10T08:18:24;10.85;;;5.18;;
18383;SDS011;9318;48.644;9.456;2023-04-10T08:20:50;7.53;;;5.15;;
18383;SDS011;9318;48.644;9.456;2023-04-10T08:23:17;8.43;;;5.47;;
18383;SDS011;9318;48.644;9.456;2023-04-10T08:25:44;7.80;;;5.40;;
18383;SDS011;9318;48.644;9.456;2023-04-10T08:28:11;7.72;;;4.97;;
18383;SDS011;9318;48.644;9.456;2023-04-10T08:30:37;7.75;;;5.30;;
18383;SDS011;9318;48.644;9.456;2023-04-10T08:33:04;8.77;;;5.55;;
18383;SDS011;9318;48.644;9.456;2023-04-10T08:35:32;8.00;;;4.95;;
18383;SDS011;9318;48.644;9.456;2023-04-10T08:37:59;7.63;;;5.10;;
18383;SDS011;9318;48.644;9.456;2023-04-10T08:40:26;6.18;;;4.68;;
18383;SDS011;9318;48.644;9.456;2023-04-10T08:42:52;7.05;;;5.00;;
18383;SDS011;9318;48.644;9.456;2023-04-10T08:45:20;6.70;;;4.88;;
18383;SDS011;9318;48.644;9.456;2023-04-10T08:47:47;9.10;;;5.10;;
18383;SDS011;9318;48.644;9.456;2023-04-10T08:50:17;6.75;;;4.60;;
18383;SDS011;9318;48.644;9.456;2023-04-10T08:52:47;7.68;;;4.53;;
18383;SDS011;9318;48.644;9.456;2023-04-10T08:55:17;7.25;;;4.93;;
18383;SDS011;9318;48.644;9.456;2023-04-10T08:57:45;7.20;;;4.90;;
18383;SDS011;9318;48.644;9.456;2023-04-10T09:00:12;8.07;;;4.80;;
18383;SDS011;9318;48.644;9.456;2023-04-10T09:02:40;6.10;;;4.55;;
18383;SDS011;9318;48.644;9.456;2023-04-10T09:05:09;5.80;;;4.10;;
18383;SDS011;9318;48.644;9.456;2023-04-10T09:07:37;6.82;;;4.50;;
18383;SDS011;9318;48.644;9.456;2023-04-10T09:10:08;6.85;;;4.47;;
18383;SDS011;9318;48.644;9.456;2023-04-10T09:12:42;7.28;;;4.60;;
18383;SDS011;9318;48.644;9.456;2023-04-10T09:15:10;6.20;;;4.47;;
18383;SDS011;9318;48.644;9.456;2023-04-10T09:17:38;6.40;;;4.57;;
18383;SDS011;9318;48.644;9.456;2023-04-10T09:20:20;6.70;;;4.65;;
18383;SDS011;9318;48.644;9.456;2023-04-10T09:22:48;5.93;;;4.40;;
18383;SDS011;9318;48.644;9.456;2023-04-10T09:25:28;7.40;;;4.50;;
18383;SDS011;9318;48.644;9.456;2023-04-10T09:28:00;6.50;;;4.60;;
18383;SDS011;9318;48.644;9.456;2023-04-10T09:30:32;6.75;;;4.28;;
18383;SDS011;9318;48.644;9.456;2023-04-10T09:33:19;5.90;;;4.47;;
18383;SDS011;9318;48.644;9.456;2023-04-10T09:35:47;6.05;;;4.10;;
18383;SDS011;9318;48.644;9.456;2023-04-10T09:38:15;5.97;;;4.20;;
18383;SDS011;9318;48.644;9.456;2023-04-10T09:40:44;6.35;;;4.32;;
18383;SDS011;9318;48.644;9.456;2023-04-10T09:43:15;5.30;;;4.28;;
18383;SDS011;9318;48.644;9.456;2023-04-10T09:45:47;6.57;;;4.25;;
18383;SDS011;9318;48.644;9.456;2023-04-10T09:48:15;6.75;;;4.25;;
18383;SDS011;9318;48.644;9.456;2023-04-10T09:50:43;4.65;;;3.95;;
18383;SDS011;9318;48.644;9.456;2023-04-10T09:53:11;6.80;;;4.18;;
18383;SDS011;9318;48.644;9.456;2023-04-10T09:55:39;6.85;;;4.10;;
18383;SDS011;9318;48.644;9.456;2023-04-10T09:58:08;5.70;;;4.10;;
18383;SDS011;9318;48.644;9.456;2023-04-10T10:00:37;6.38;;;4.20;;
18383;SDS011;9318;48.644;9.456;2023-04-10T10:03:06;5.15;;;4.00;;
18383;SDS011;9318;48.644;9.456;2023-04-10T10:05:34;5.45;;;3.97;;
18383;SDS011;9318;48.644;9.456;2023-04-10T10:08:03;4.40;;;3.65;;
18383;SDS011;9318;48.644;9.456;2023-04-10T10:10:30;5.40;;;4.05;;
18383;SDS011;9318;48.644;9.456;2023-04-10T10:12:58;5.88;;;4.07;;
18383;SDS011;9318;48.644;9.456;2023-04-10T10:15:29;5.25;;;4.03;;
18383;SDS011;9318;48.644;9.456;2023-04-10T10:18:03;5.22;;;3.80;;
18383;SDS011;9318;48.644;9.456;2023-04-10T10:20:33;5.47;;;4.03;;
18383;SDS011;9318;48.644;9.456;2023-04-10T10:23:01;5.15;;;3.50;;
18383;SDS011;9318;48.644;9.456;2023-04-10T10:25:29;5.13;;;3.80;;
18383;SDS011;9318;48.644;9.456;2023-04-10T10:27:56;5.20;;;3.58;;
18383;SDS011;9318;48.644;9.456;2023-04-10T10:30:29;5.25;;;3.42;;
18383;SDS011;9318;48.644;9.456;2023-04-10T10:32:57;3.97;;;3.50;;
18383;SDS011;9318;48.644;9.456;2023-04-10T10:35:25;4.95;;;3.60;;
18383;SDS011;9318;48.644;9.456;2023-04-10T10:37:52;4.85;;;3.70;;
18383;SDS011;9318;48.644;9.456;2023-04-10T10:40:21;5.28;;;3.60;;
18383;SDS011;9318;48.644;9.456;2023-04-10T10:42:55;5.07;;;3.42;;
18383;SDS011;9318;48.644;9.456;2023-04-10T10:45:29;4.60;;;3.42;;
18383;SDS011;9318;48.644;9.456;2023-04-10T10:48:01;4.10;;;3.50;;
18383;SDS011;9318;48.644;9.456;2023-04-10T10:53:29;4.43;;;3.50;;
18383;SDS011;9318;48.644;9.456;2023-04-10T10:55:57;4.13;;;3.20;;
18383;SDS011;9318;48.644;9.456;2023-04-10T11:01:13;4.20;;;3.30;;
18383;SDS011;9318;48.644;9.456;2023-04-10T11:03:41;4.35;;;3.40;;
18383;SDS011;9318;48.644;9.456;2023-04-10T11:06:09;4.00;;;3.10;;
18383;SDS011;9318;48.644;9.456;2023-04-10T11:08:40;4.10;;;3.28;;
18383;SDS011;9318;48.644;9.456;2023-04-10T11:11:11;4.70;;;3.35;;
18383;SDS011;9318;48.644;9.456;2023-04-10T11:13:41;3.90;;;3.30;;
18383;SDS011;9318;48.644;9.456;2023-04-10T11:16:42;3.97;;;3.17;;
18383;SDS011;9318;48.644;9.456;2023-04-10T11:19:12;4.75;;;2.88;;
18383;SDS011;9318;48.644;9.456;2023-04-10T11:24:28;4.22;;;3.30;;
18383;SDS011;9318;48.644;9.456;2023-04-10T11:30:28;3.60;;;3.05;;
18383;SDS011;9318;48.644;9.456;2023-04-10T11:33:00;4.25;;;3.10;;
18383;SDS011;9318;48.644;9.456;2023-04-10T11:35:28;3.35;;;2.90;;
18383;SDS011;9318;48.644;9.456;2023-04-10T11:38:12;3.50;;;2.80;;
18383;SDS011;9318;48.644;9.456;2023-04-10T11:40:58;3.38;;;2.80;;
18383;SDS011;9318;48.644;9.456;2023-04-10T11:43:28;4.25;;;3.20;;
18383;SDS011;9318;48.644;9.456;2023-04-10T11:46:02;3.97;;;3.05;;
18383;SDS011;9318;48.644;9.456;2023-04-10T11:48:32;3.40;;;2.85;;
18383;SDS011;9318;48.644;9.456;2023-04-10T11:51:07;4.20;;;3.08;;
18383;SDS011;9318;48.644;9.456;2023-04-10T11:53:35;3.40;;;2.90;;
18383;SDS011;9318;48.644;9.456;2023-04-10T11:56:03;3.85;;;2.90;;
18383;SDS011;9318;48.644;9.456;2023-04-10T11:58:31;3.20;;;2.90;;
18383;SDS011;9318;48.644;9.456;2023-04-10T12:00:59;3.25;;;2.67;;
18383;SDS011;9318;48.644;9.456;2023-04-10T12:03:32;3.08;;;2.78;;
18383;SDS011;9318;48.644;9.456;2023-04-10T12:06:00;3.20;;;2.90;;
18383;SDS011;9318;48.644;9.456;2023-04-10T12:08:31;3.38;;;2.90;;
18383;SDS011;9318;48.644;9.456;2023-04-10T12:10:59;3.20;;;2.80;;
18383;SDS011;9318;48.644;9.456;2023-04-10T12:13:26;4.03;;;2.50;;
18383;SDS011;9318;48.644;9.456;2023-04-10T12:15:56;2.92;;;2.50;;
18383;SDS011;9318;48.644;9.456;2023-04-10T12:18:23;4.03;;;2.70;;
18383;SDS011;9318;48.644;9.456;2023-04-10T12:20:52;3.33;;;2.70;;
18383;SDS011;9318;48.644;9.456;2023-04-10T12:23:20;2.83;;;2.45;;
18383;SDS011;9318;48.644;9.456;2023-04-10T12:25:47;3.42;;;2.50;;
18383;SDS011;9318;48.644;9.456;2023-04-10T12:28:18;2.42;;;2.22;;
18383;SDS011;9318;48.644;9.456;2023-04-10T12:30:46;5.07;;;2.58;;
18383;SDS011;9318;48.644;9.456;2023-04-10T12:33:13;4.03;;;2.88;;
18383;SDS011;9318;48.644;9.456;2023-04-10T12:35:45;2.75;;;2.53;;
18383;SDS011;9318;48.644;9.456;2023-04-10T12:38:13;2.70;;;2.10;;
18383;SDS011;9318;48.644;9.456;2023-04-10T12:43:29;3.63;;;2.20;;
18383;SDS011;9318;48.644;9.456;2023-04-10T12:45:56;2.13;;;2.00;;
18383;SDS011;9318;48.644;9.456;2023-04-10T12:48:23;2.50;;;2.30;;
18383;SDS011;9318;48.644;9.456;2023-04-10T12:50:51;2.40;;;2.20;;
18383;SDS011;9318;48.644;9.456;2023-04-10T12:53:19;2.50;;;2.30;;
18383;SDS011;9318;48.644;9.456;2023-04-10T12:55:55;3.17;;;2.35;;
18383;SDS011;9318;48.644;9.456;2023-04-10T12:58:26;2.72;;;2.30;;
18383;SDS011;9318;48.644;9.456;2023-04-10T13:00:55;3.47;;;2.15;;
18383;SDS011;9318;48.644;9.456;2023-04-10T13:03:23;2.78;;;2.45;;
18383;SDS011;9318;48.644;9.456;2023-04-10T13:05:49;5.28;;;2.60;;
18383;SDS011;9318;48.644;9.456;2023-04-10T13:08:18;3.67;;;2.70;;
18383;SDS011;9318;48.644;9.456;2023-04-10T13:10:46;3.33;;;2.70;;
18383;SDS011;9318;48.644;9.456;2023-04-10T13:13:13;3.35;;;2.50;;
18383;SDS011;9318;48.644;9.456;2023-04-10T13:15:40;3.20;;;2.53;;
18383;SDS011;9318;48.644;9.456;2023-04-10T13:18:07;2.95;;;2.60;;
18383;SDS011;9318;48.644;9.456;2023-04-10T13:20:35;2.97;;;2.67;;
18383;SDS011;9318;48.644;9.456;2023-04-10T13:23:02;4.22;;;2.78;;
18383;SDS011;9318;48.644;9.456;2023-04-10T13:25:32;3.28;;;2.70;;
18383;SDS011;9318;48.644;9.456;2023-04-10T13:27:59;3.55;;;2.70;;
18383;SDS011;9318;48.644;9.456;2023-04-10T13:30:26;2.92;;;2.63;;
18383;SDS011;9318;48.644;9.456;2023-04-10T13:32:53;3.55;;;2.70;;
18383;SDS011;9318;48.644;9.456;2023-04-10T13:35:20;3.40;;;2.50;;
18383;SDS011;9318;48.644;9.456;2023-04-10T13:37:47;3.88;;;2.60;;
18383;SDS011;9318;48.644;9.456;2023-04-10T13:40:17;3.83;;;2.83;;
18383;SDS011;9318;48.644;9.456;2023-04-10T13:42:45;3.53;;;3.00;;
18383;SDS011;9318;48.644;9.456;2023-04-10T13:45:12;3.90;;;2.92;;
18383;SDS011;9318;48.644;9.456;2023-04-10T13:47:39;3.42;;;2.67;;
18383;SDS011;9318;48.644;9.456;2023-04-10T13:50:06;2.88;;;2.40;;
18383;SDS011;9318;48.644;9.456;2023-04-10T13:52:33;2.88;;;2.50;;
18383;SDS011;9318;48.644;9.456;2023-04-10T13:55:00;2.50;;;2.30;;
18383;SDS011;9318;48.644;9.456;2023-04-10T13:57:27;2.60;;;2.40;;
18383;SDS011;9318;48.644;9.456;2023-04-10T13:59:56;2.80;;;2.47;;
18383;SDS011;9318;48.644;9.456;2023-04-10T14:02:23;2.50;;;2.30;;
18383;SDS011;9318;48.644;9.456;2023-04-10T14:04:50;4.25;;;2.55;;
18383;SDS011;9318;48.644;9.456;2023-04-10T14:07:16;3.38;;;2.50;;
18383;SDS011;9318;48.644;9.456;2023-04-10T14:09:44;2.75;;;2.53;;
18383;SDS011;9318;48.644;9.456;2023-04-10T14:12:11;3.13;;;2.60;;
18383;SDS011;9318;48.644;9.456;2023-04-10T14:14:40;2.85;;;2.40;;
18383;SDS011;9318;48.644;9.456;2023-04-10T14:17:08;2.38;;;2.10;;
18383;SDS011;9318;48.644;9.456;2023-04-10T14:19:35;2.58;;;2.20;;
18383;SDS011;9318;48.644;9.456;2023-04-10T14:22:02;3.47;;;2.50;;
18383;SDS011;9318;48.644;9.456;2023-04-10T14:24:29;3.65;;;2.50;;
18383;SDS011;9318;48.644;9.456;2023-04-10T14:26:56;2.65;;;2.45;;
18383;SDS011;9318;48.644;9.456;2023-04-10T14:29:25;2.60;;;2.40;;
18383;SDS011;9318;48.644;9.456;2023-04-10T14:31:52;2.55;;;2.35;;
18383;SDS011;9318;48.644;9.456;2023-04-10T14:34:20;2.58;;;2.20;;
18383;SDS011;9318;48.644;9.456;2023-04-10T14:36:47;2.80;;;2.40;;
18383;SDS011;9318;48.644;9.456;2023-04-10T14:39:13;2.40;;;2.20;;
18383;SDS011;9318;48.644;9.456;2023-04-10T14:41:40;3.03;;;2.53;;
18383;SDS011;9318;48.644;9.456;2023-04-10T14:44:07;2.28;;;2.08;;
18383;SDS011;9318;48.644;9.456;2023-04-10T14:46:34;2.45;;;2.25;;
18383;SDS011;9318;48.644;9.456;2023-04-10T14:49:01;2.60;;;2.38;;
18383;SDS011;9318;48.644;9.456;2023-04-10T14:51:29;2.30;;;2.10;;
18383;SDS011;9318;48.644;9.456;2023-04-10T14:53:57;2.30;;;2.10;;
18383;SDS011;9318;48.644;9.456;2023-04-10T14:56:24;2.30;;;2.08;;
18383;SDS011;9318;48.644;9.456;2023-04-10T14:58:51;2.42;;;2.20;;
18383;SDS011;9318;48.644;9.456;2023-04-10T15:01:17;4.47;;;2.28;;
18383;SDS011;9318;48.644;9.456;2023-04-10T15:03:45;2.33;;;2.13;;
18383;SDS011;9318;48.644;9.456;2023-04-10T15:06:12;2.60;;;2.25;;
18383;SDS011;9318;48.644;9.456;2023-04-10T15:08:41;2.47;;;2.20;;